TimeEDT,TemperatureF,Dew PointF,Humidity,Sea Level PressureIn,VisibilityMPH,Wind Direction,Wind SpeedMPH,Gust SpeedMPH,PrecipitationIn,Events,Conditions,WindDirDegrees,DateUTC
12:52 AM,60.1,37.9,44,30.05,10.0,North,3.5,-,N/A,,Clear,10,2014-05-12 04:52:00
1:52 AM,54.0,39.0,57,30.06,10.0,NNE,3.5,-,N/A,,Clear,20,2014-05-12 05:52:00
2:52 AM,57.0,37.9,49,30.06,10.0,NNW,4.6,-,N/A,,Clear,340,2014-05-12 06:52:00
3:52 AM,55.9,37.9,51,30.07,10.0,NNW,3.5,-,N/A,,Clear,330,2014-05-12 07:52:00
4:52 AM,51.1,39.9,66,30.09,10.0,NW,3.5,-,N/A,,Clear,310,2014-05-12 08:52:00
5:52 AM,54.0,39.9,59,30.10,10.0,North,8.1,-,N/A,,Scattered Clouds,360,2014-05-12 09:52:00
6:52 AM,60.1,39.9,47,30.10,10.0,NNW,5.8,-,N/A,,Clear,340,2014-05-12 10:52:00
7:52 AM,68.0,39.0,35,30.10,10.0,Variable,4.6,-,N/A,,Clear,0,2014-05-12 11:52:00
8:52 AM,73.0,37.9,28,30.11,10.0,WNW,6.9,-,N/A,,Clear,290,2014-05-12 12:52:00
10:52 AM,80.1,37.0,21,30.08,10.0,WNW,13.8,21.9,N/A,,Clear,290,2014-05-12 14:52:00
11:52 AM,82.0,37.9,21,30.06,10.0,Variable,6.9,16.1,N/A,,Scattered Clouds,0,2014-05-12 15:52:00
12:52 PM,84.0,37.0,19,30.05,10.0,West,9.2,23.0,N/A,,Partly Cloudy,280,2014-05-12 16:52:00
1:52 PM,84.9,36.0,17,30.04,10.0,West,15.0,20.7,N/A,,Clear,260,2014-05-12 17:52:00
2:52 PM,84.9,37.0,18,30.01,10.0,WSW,9.2,18.4,N/A,,Clear,250,2014-05-12 18:52:00
3:52 PM,86.0,37.0,18,29.99,10.0,West,9.2,17.3,N/A,,Clear,280,2014-05-12 19:52:00
4:52 PM,87.1,35.1,16,29.97,10.0,West,11.5,23.0,N/A,,Clear,260,2014-05-12 20:52:00
5:52 PM,86.0,36.0,17,29.98,10.0,NW,12.7,20.7,N/A,,Clear,310,2014-05-12 21:52:00
6:52 PM,84.9,39.0,20,29.98,10.0,NW,6.9,-,N/A,,Clear,310,2014-05-12 22:52:00
7:52 PM,79.0,41.0,26,30.00,10.0,North,3.5,-,N/A,,Clear,350,2014-05-12 23:52:00
8:52 PM,69.1,46.9,45,30.01,10.0,Calm,Calm,-,N/A,,Clear,0,2014-05-13 00:52:00
9:52 PM,66.9,48.0,51,30.04,10.0,Calm,Calm,-,N/A,,Mostly Cloudy,0,2014-05-13 01:52:00
11:52 PM,64.0,46.9,54,30.06,10.0,North,6.9,-,N/A,,Clear,350,2014-05-13 03:52:00